Laida — EAVE — position and weather

sailwx.info

Track history (hours):
 
Tides and Currents Weather Stations Pressure Air Temp Water Temp Dewpoint Dewpoint Depression Visibility Wind Speed Wind Dir Waves Ship Positions

Laida

Last reported at 2015-Jun-29 21:07 UTC. Time now 2015-Jul-01 19:19 UTC.
Position N 43°31' W 002°49'.

Length 100 m; draft 6.4 m.

Type: Ship (hazmat cat A). MMSI: 224509000.

Date/timePositionNaut miles runAvg speedWind from/ knotsBaromVisibWave heightAir tempDewpointWater temp
2015-Jun-29 21:07N 43°31' W 002°49'3612.5
2015-Jun-29 18:12N 43°32' W 001°58'812.7
2015-Jun-29 17:33N 43°32' W 001°47'10 0.3
2015-Jun-28 10:10N 43°34' W 001°34'0 0.0
2015-Jun-28 09:16N 43°34' W 001°34'0 0.0
2015-Jun-28 08:25N 43°34' W 001°34'0 0.0
2015-Jun-28 06:22N 43°34' W 001°34'3 3.4
2015-Jun-28 05:26N 43°37' W 001°37'8 8.0
2015-Jun-28 04:29N 43°42' W 001°43'6 6.1
2015-Jun-28 03:33N 43°47' W 001°48'6 5.9
2015-Jun-28 02:33N 43°52' W 001°53'6 5.9
2015-Jun-28 01:33N 43°56' W 001°58'39 7.9
2015-Jun-27 20:33N 44°28' W 002°31'20010.9
2015-Jun-27 02:11N 47°08' W 005°22'186 9.5
2015-Jun-26 06:33N 49°54' W 003°15'1712.8
2015-Jun-26 05:15N 50°01' W 002°51'912.4
2015-Jun-26 04:31N 50°04' W 002°37'2311.4
2015-Jun-26 02:28N 50°10' W 002°02'1011.0
2015-Jun-26 01:33N 50°13' W 001°47'2712.1
2015-Jun-25 23:21N 50°20' W 001°07'1314.3
2015-Jun-25 22:28N 50°23' W 000°48'2814.2
2015-Jun-25 20:28N 50°31' W 000°05'1513.6
2015-Jun-25 19:20N 50°35' E 000°18'1013.1
2015-Jun-25 18:33N 50°39' E 000°33'1312.6
2015-Jun-25 17:33N 50°46' E 000°50'1212.4
2015-Jun-25 16:33N 50°53' E 001°06'1312.5
2015-Jun-25 15:32N 51°01' E 001°22'1414.2
2015-Jun-25 14:33N 51°10' E 001°38'1514.5
2015-Jun-25 13:34N 51°22' E 001°52'1414.1
2015-Jun-25 12:33N 51°33' E 002°05'15012.5
2015-Jun-25 00:33N 53°30' E 004°40'1211.6
2015-Jun-24 23:33N 53°34' E 004°59'1211.7
2015-Jun-24 22:33N 53°37' E 005°17'1212.0
2015-Jun-24 21:33N 53°40' E 005°37'1412.9
2015-Jun-24 20:31N 53°46' E 005°58'3213.3
2015-Jun-24 18:04N 53°54' E 006°51'1912.5
2015-Jun-24 16:33N 53°59' E 007°22'1212.2
2015-Jun-24 15:33N 54°01' E 007°43'1211.8
2015-Jun-24 14:33N 54°01' E 008°02'1111.0
2015-Jun-24 13:33N 53°60' E 008°21'1111.0
2015-Jun-24 12:33N 53°56' E 008°39'1312.7
2015-Jun-24 11:33N 53°51' E 008°58'1313.1
2015-Jun-24 10:33N 53°50' E 009°21'1414.2
2015-Jun-24 09:33N 53°38' E 009°32'1212.2
2015-Jun-24 08:33N 53°33' E 009°51'4 1.6
2015-Jun-24 06:12N 53°32' E 009°57'0 0.0
2015-Jun-24 05:18N 53°32' E 009°57'0 0.0
2015-Jun-24 02:27N 53°32' E 009°57'0 0.0
2015-Jun-24 01:31N 53°32' E 009°57'0 0.0
2015-Jun-24 00:28N 53°32' E 009°57'0 0.0
2015-Jun-23 23:28N 53°32' E 009°57'0 0.0
2015-Jun-23 22:31N 53°32' E 009°57'0 0.0
2015-Jun-23 21:13N 53°32' E 009°57'0 0.0
2015-Jun-23 20:28N 53°32' E 009°57'0 0.0
2015-Jun-23 19:28N 53°32' E 009°57'0 0.0
2015-Jun-23 19:01N 53°32' E 009°57'0 0.0
2015-Jun-22 17:28N 53°33' E 009°57'1010.7
2015-Jun-22 16:33N 53°34' E 009°41'9 9.1
2015-Jun-22 15:33N 53°41' E 009°30'3 2.9
2015-Jun-22 14:34N 53°43' E 009°28'1 1.4
2015-Jun-22 13:33N 53°42' E 009°29'2 2.3
2015-Jun-22 12:34N 53°44' E 009°26'9 9.4
2015-Jun-22 11:33N 53°52' E 009°17'7 7.3
2015-Jun-22 10:33N 53°46' E 009°24'1110.7
2015-Jun-22 09:33N 53°37' E 009°34'1110.9
2015-Jun-22 08:33N 53°33' E 009°51'3 0.5
2015-Jun-22 02:10N 53°32' E 009°57'0 0.0
2015-Jun-22 01:22N 53°32' E 009°57'0 0.0
2015-Jun-22 00:28N 53°32' E 009°57'0 0.0
2015-Jun-21 23:31N 53°32' E 009°57'0 0.0
2015-Jun-21 22:28N 53°32' E 009°57'0 0.0
2015-Jun-21 21:16N 53°32' E 009°57'0 0.0
2015-Jun-21 20:22N 53°32' E 009°57'0 0.0
2015-Jun-21 19:31N 53°32' E 009°57'0 0.0
2015-Jun-21 18:22N 53°32' E 009°57'0 0.0
2015-Jun-21 17:28N 53°32' E 009°57'0 0.0
2015-Jun-21 16:28N 53°32' E 009°57'0 0.0
2015-Jun-21 15:28N 53°32' E 009°57'0 0.0
2015-Jun-21 14:28N 53°32' E 009°57'0 0.0
2015-Jun-21 13:31N 53°32' E 009°57'0 0.0
2015-Jun-21 12:28N 53°32' E 009°57'0 0.0
2015-Jun-21 11:16N 53°32' E 009°57'0 0.0
2015-Jun-21 10:28N 53°32' E 009°57'0 0.0
2015-Jun-21 09:28N 53°32' E 009°57'0 0.0
2015-Jun-21 08:23N 53°32' E 009°57'0 0.0
2015-Jun-21 06:26N 53°32' E 009°57'0 0.0
2015-Jun-21 05:30N 53°32' E 009°57'0 0.0
2015-Jun-21 04:18N 53°32' E 009°57'0 0.0
2015-Jun-21 02:17N 53°32' E 009°57'0 0.0
2015-Jun-21 01:16N 53°32' E 009°57'0 0.0
2015-Jun-21 00:28N 53°32' E 009°57'0 0.0
2015-Jun-20 23:28N 53°32' E 009°57'0 0.0
2015-Jun-20 22:28N 53°32' E 009°57'0 0.0
2015-Jun-20 21:22N 53°32' E 009°57'0 0.0
2015-Jun-20 20:28N 53°32' E 009°57'0 0.0
2015-Jun-20 19:28N 53°32' E 009°57'0 0.0
2015-Jun-20 18:28N 53°32' E 009°57'0 0.0
2015-Jun-20 17:28N 53°32' E 009°57'0 0.0
2015-Jun-20 16:28N 53°32' E 009°57'0 0.0
2015-Jun-20 15:22N 53°32' E 009°57'0 0.0
2015-Jun-20 14:31N 53°32' E 009°57'0 0.0
2015-Jun-20 13:22N 53°32' E 009°57'0 0.0
2015-Jun-20 12:31N 53°32' E 009°57'0 0.0
2015-Jun-20 11:22N 53°32' E 009°57'0 0.0
2015-Jun-20 10:31N 53°32' E 009°57'0 0.0
2015-Jun-20 09:25N 53°32' E 009°57'0 0.0
2015-Jun-20 06:11N 53°32' E 009°57'0 0.0
2015-Jun-20 03:33N 53°32' E 009°57'0 0.0
2015-Jun-20 02:10N 53°32' E 009°57'0 0.0
2015-Jun-20 01:28N 53°32' E 009°57'0 0.0
2015-Jun-20 00:22N 53°32' E 009°57'0 0.0
2015-Jun-19 23:28N 53°32' E 009°57'0 0.0
2015-Jun-19 22:28N 53°32' E 009°57'0 0.0
2015-Jun-19 21:16N 53°32' E 009°57'  
Track history (hours):
 
Tides and Currents Weather Stations Pressure Air Temp Water Temp Dewpoint Dewpoint Depression Visibility Wind Speed Wind Dir Waves Ship Positions

Laida

Last reported at 2015-Jun-29 21:07 UTC. Time now 2015-Jul-01 19:19 UTC.
Position N 43°31' W 002°49'.

Length 100 m; draft 6.4 m.

Type: Ship (hazmat cat A). MMSI: 224509000.

Date/timePositionNaut miles runAvg speedWind from/ knotsBaromVisibWave heightAir tempDewpointWater temp
2015-Jun-29 21:07N 43°31' W 002°49'3612.5
2015-Jun-29 18:12N 43°32' W 001°58'812.7
2015-Jun-29 17:33N 43°32' W 001°47'10 0.3
2015-Jun-28 10:10N 43°34' W 001°34'0 0.0
2015-Jun-28 09:16N 43°34' W 001°34'0 0.0
2015-Jun-28 08:25N 43°34' W 001°34'0 0.0
2015-Jun-28 06:22N 43°34' W 001°34'3 3.4
2015-Jun-28 05:26N 43°37' W 001°37'8 8.0
2015-Jun-28 04:29N 43°42' W 001°43'6 6.1
2015-Jun-28 03:33N 43°47' W 001°48'6 5.9
2015-Jun-28 02:33N 43°52' W 001°53'6 5.9
2015-Jun-28 01:33N 43°56' W 001°58'39 7.9
2015-Jun-27 20:33N 44°28' W 002°31'20010.9
2015-Jun-27 02:11N 47°08' W 005°22'186 9.5
2015-Jun-26 06:33N 49°54' W 003°15'1712.8
2015-Jun-26 05:15N 50°01' W 002°51'912.4
2015-Jun-26 04:31N 50°04' W 002°37'2311.4
2015-Jun-26 02:28N 50°10' W 002°02'1011.0
2015-Jun-26 01:33N 50°13' W 001°47'2712.1
2015-Jun-25 23:21N 50°20' W 001°07'1314.3
2015-Jun-25 22:28N 50°23' W 000°48'2814.2
2015-Jun-25 20:28N 50°31' W 000°05'1513.6
2015-Jun-25 19:20N 50°35' E 000°18'1013.1
2015-Jun-25 18:33N 50°39' E 000°33'1312.6
2015-Jun-25 17:33N 50°46' E 000°50'1212.4
2015-Jun-25 16:33N 50°53' E 001°06'1312.5
2015-Jun-25 15:32N 51°01' E 001°22'1414.2
2015-Jun-25 14:33N 51°10' E 001°38'1514.5
2015-Jun-25 13:34N 51°22' E 001°52'1414.1
2015-Jun-25 12:33N 51°33' E 002°05'15012.5
2015-Jun-25 00:33N 53°30' E 004°40'1211.6
2015-Jun-24 23:33N 53°34' E 004°59'1211.7
2015-Jun-24 22:33N 53°37' E 005°17'1212.0
2015-Jun-24 21:33N 53°40' E 005°37'1412.9
2015-Jun-24 20:31N 53°46' E 005°58'3213.3
2015-Jun-24 18:04N 53°54' E 006°51'1912.5
2015-Jun-24 16:33N 53°59' E 007°22'1212.2
2015-Jun-24 15:33N 54°01' E 007°43'1211.8
2015-Jun-24 14:33N 54°01' E 008°02'1111.0
2015-Jun-24 13:33N 53°60' E 008°21'1111.0
2015-Jun-24 12:33N 53°56' E 008°39'1312.7
2015-Jun-24 11:33N 53°51' E 008°58'1313.1
2015-Jun-24 10:33N 53°50' E 009°21'1414.2
2015-Jun-24 09:33N 53°38' E 009°32'1212.2
2015-Jun-24 08:33N 53°33' E 009°51'4 1.6
2015-Jun-24 06:12N 53°32' E 009°57'0 0.0
2015-Jun-24 05:18N 53°32' E 009°57'0 0.0
2015-Jun-24 02:27N 53°32' E 009°57'0 0.0
2015-Jun-24 01:31N 53°32' E 009°57'0 0.0
2015-Jun-24 00:28N 53°32' E 009°57'0 0.0
2015-Jun-23 23:28N 53°32' E 009°57'0 0.0
2015-Jun-23 22:31N 53°32' E 009°57'0 0.0
2015-Jun-23 21:13N 53°32' E 009°57'0 0.0
2015-Jun-23 20:28N 53°32' E 009°57'0 0.0
2015-Jun-23 19:28N 53°32' E 009°57'0 0.0
2015-Jun-23 19:01N 53°32' E 009°57'0 0.0
2015-Jun-22 17:28N 53°33' E 009°57'1010.7
2015-Jun-22 16:33N 53°34' E 009°41'9 9.1
2015-Jun-22 15:33N 53°41' E 009°30'3 2.9
2015-Jun-22 14:34N 53°43' E 009°28'1 1.4
2015-Jun-22 13:33N 53°42' E 009°29'2 2.3
2015-Jun-22 12:34N 53°44' E 009°26'9 9.4
2015-Jun-22 11:33N 53°52' E 009°17'7 7.3
2015-Jun-22 10:33N 53°46' E 009°24'1110.7
2015-Jun-22 09:33N 53°37' E 009°34'1110.9
2015-Jun-22 08:33N 53°33' E 009°51'3 0.5
2015-Jun-22 02:10N 53°32' E 009°57'0 0.0
2015-Jun-22 01:22N 53°32' E 009°57'0 0.0
2015-Jun-22 00:28N 53°32' E 009°57'0 0.0
2015-Jun-21 23:31N 53°32' E 009°57'0 0.0
2015-Jun-21 22:28N 53°32' E 009°57'0 0.0
2015-Jun-21 21:16N 53°32' E 009°57'0 0.0
2015-Jun-21 20:22N 53°32' E 009°57'0 0.0
2015-Jun-21 19:31N 53°32' E 009°57'0 0.0
2015-Jun-21 18:22N 53°32' E 009°57'0 0.0
2015-Jun-21 17:28N 53°32' E 009°57'0 0.0
2015-Jun-21 16:28N 53°32' E 009°57'0 0.0
2015-Jun-21 15:28N 53°32' E 009°57'0 0.0
2015-Jun-21 14:28N 53°32' E 009°57'0 0.0
2015-Jun-21 13:31N 53°32' E 009°57'0 0.0
2015-Jun-21 12:28N 53°32' E 009°57'0 0.0
2015-Jun-21 11:16N 53°32' E 009°57'0 0.0
2015-Jun-21 10:28N 53°32' E 009°57'0 0.0
2015-Jun-21 09:28N 53°32' E 009°57'0 0.0
2015-Jun-21 08:23N 53°32' E 009°57'0 0.0
2015-Jun-21 06:26N 53°32' E 009°57'0 0.0
2015-Jun-21 05:30N 53°32' E 009°57'0 0.0
2015-Jun-21 04:18N 53°32' E 009°57'0 0.0
2015-Jun-21 02:17N 53°32' E 009°57'0 0.0
2015-Jun-21 01:16N 53°32' E 009°57'0 0.0
2015-Jun-21 00:28N 53°32' E 009°57'0 0.0
2015-Jun-20 23:28N 53°32' E 009°57'0 0.0
2015-Jun-20 22:28N 53°32' E 009°57'0 0.0
2015-Jun-20 21:22N 53°32' E 009°57'0 0.0
2015-Jun-20 20:28N 53°32' E 009°57'0 0.0
2015-Jun-20 19:28N 53°32' E 009°57'0 0.0
2015-Jun-20 18:28N 53°32' E 009°57'0 0.0
2015-Jun-20 17:28N 53°32' E 009°57'0 0.0
2015-Jun-20 16:28N 53°32' E 009°57'0 0.0
2015-Jun-20 15:22N 53°32' E 009°57'0 0.0
2015-Jun-20 14:31N 53°32' E 009°57'0 0.0
2015-Jun-20 13:22N 53°32' E 009°57'0 0.0
2015-Jun-20 12:31N 53°32' E 009°57'0 0.0
2015-Jun-20 11:22N 53°32' E 009°57'0 0.0
2015-Jun-20 10:31N 53°32' E 009°57'0 0.0
2015-Jun-20 09:25N 53°32' E 009°57'0 0.0
2015-Jun-20 06:11N 53°32' E 009°57'0 0.0
2015-Jun-20 03:33N 53°32' E 009°57'0 0.0
2015-Jun-20 02:10N 53°32' E 009°57'0 0.0
2015-Jun-20 01:28N 53°32' E 009°57'0 0.0
2015-Jun-20 00:22N 53°32' E 009°57'0 0.0
2015-Jun-19 23:28N 53°32' E 009°57'0 0.0
2015-Jun-19 22:28N 53°32' E 009°57'0 0.0
2015-Jun-19 21:16N 53°32' E 009°57'  

Dump ship's entire track history